sensor_id;sensor_type;location;lat;lon;timestamp;pressure;altitude;pressure_sealevel;temperature;humidity
5691;BME280;2870;42.680;23.364;2024-01-15T00:01:30;94564.16;;;-1.53;89.20
5691;BME280;2870;42.680;23.364;2024-01-15T00:03:57;94557.94;;;-1.43;87.51
5691;BME280;2870;42.680;23.364;2024-01-15T00:06:25;94557.09;;;-1.66;87.68
5691;BME280;2870;42.680;23.364;2024-01-15T00:08:52;94551.53;;;-1.77;88.66
5691;BME280;2870;42.680;23.364;2024-01-15T00:11:19;94555.34;;;-2.11;90.13
5691;BME280;2870;42.680;23.364;2024-01-15T00:13:46;94544.97;;;-1.96;89.99
5691;BME280;2870;42.680;23.364;2024-01-15T00:16:13;94549.47;;;-1.93;90.57
5691;BME280;2870;42.680;23.364;2024-01-15T00:18:39;94537.75;;;-1.88;90.72
5691;BME280;2870;42.680;23.364;2024-01-15T00:21:06;94544.50;;;-1.89;90.92
5691;BME280;2870;42.680;23.364;2024-01-15T00:23:34;94541.31;;;-1.71;91.46
5691;BME280;2870;42.680;23.364;2024-01-15T00:26:01;94539.34;;;-1.65;90.96
5691;BME280;2870;42.680;23.364;2024-01-15T00:28:28;94546.47;;;-1.36;91.12
5691;BME280;2870;42.680;23.364;2024-01-15T00:30:55;94546.00;;;-1.28;89.85
5691;BME280;2870;42.680;23.364;2024-01-15T00:33:22;94550.66;;;-1.51;90.18
5691;BME280;2870;42.680;23.364;2024-01-15T00:35:48;94521.88;;;-1.62;90.02
5691;BME280;2870;42.680;23.364;2024-01-15T00:38:15;94544.63;;;-1.61;90.35
5691;BME280;2870;42.680;23.364;2024-01-15T00:40:43;94535.56;;;-1.73;90.80
5691;BME280;2870;42.680;23.364;2024-01-15T00:43:10;94551.59;;;-1.66;91.12
5691;BME280;2870;42.680;23.364;2024-01-15T00:45:37;94550.41;;;-1.53;91.05
5691;BME280;2870;42.680;23.364;2024-01-15T00:48:05;94544.44;;;-1.46;90.23
5691;BME280;2870;42.680;23.364;2024-01-15T00:50:31;94542.88;;;-1.64;90.69
5691;BME280;2870;42.680;23.364;2024-01-15T00:52:58;94539.16;;;-1.55;90.87
5691;BME280;2870;42.680;23.364;2024-01-15T00:55:25;94549.34;;;-1.67;90.92
5691;BME280;2870;42.680;23.364;2024-01-15T00:57:53;94534.66;;;-1.58;90.39
5691;BME280;2870;42.680;23.364;2024-01-15T01:00:20;94537.16;;;-1.49;90.13
5691;BME280;2870;42.680;23.364;2024-01-15T01:02:47;94539.38;;;-1.59;90.75
5691;BME280;2870;42.680;23.364;2024-01-15T01:05:14;94538.53;;;-1.76;91.71
5691;BME280;2870;42.680;23.364;2024-01-15T01:07:40;94541.84;;;-1.67;91.07
5691;BME280;2870;42.680;23.364;2024-01-15T01:10:08;94543.84;;;-1.67;91.59
5691;BME280;2870;42.680;23.364;2024-01-15T01:12:35;94537.56;;;-1.79;92.24
5691;BME280;2870;42.680;23.364;2024-01-15T01:15:04;94533.31;;;-1.80;93.05
5691;BME280;2870;42.680;23.364;2024-01-15T01:17:32;94521.63;;;-1.64;92.57
5691;BME280;2870;42.680;23.364;2024-01-15T01:19:59;94537.31;;;-1.81;92.51
5691;BME280;2870;42.680;23.364;2024-01-15T01:22:29;94527.53;;;-1.82;92.38
5691;BME280;2870;42.680;23.364;2024-01-15T01:24:56;94534.81;;;-1.79;92.24
5691;BME280;2870;42.680;23.364;2024-01-15T01:27:23;94534.31;;;-1.77;92.10
5691;BME280;2870;42.680;23.364;2024-01-15T01:29:50;94529.59;;;-1.66;91.65
5691;BME280;2870;42.680;23.364;2024-01-15T01:32:18;94529.09;;;-1.75;90.99
5691;BME280;2870;42.680;23.364;2024-01-15T01:34:45;94528.22;;;-1.98;91.78
5691;BME280;2870;42.680;23.364;2024-01-15T01:37:12;94529.72;;;-1.97;91.81
5691;BME280;2870;42.680;23.364;2024-01-15T01:39:39;94514.97;;;-1.94;91.17
5691;BME280;2870;42.680;23.364;2024-01-15T01:42:06;94516.47;;;-1.93;91.72
5691;BME280;2870;42.680;23.364;2024-01-15T01:44:33;94512.94;;;-1.99;91.54
5691;BME280;2870;42.680;23.364;2024-01-15T01:47:00;94524.63;;;-2.10;91.40
5691;BME280;2870;42.680;23.364;2024-01-15T01:49:29;94518.75;;;-2.34;91.57
5691;BME280;2870;42.680;23.364;2024-01-15T01:51:57;94531.44;;;-2.43;92.08
5691;BME280;2870;42.680;23.364;2024-01-15T01:54:25;94516.81;;;-2.23;91.34
5691;BME280;2870;42.680;23.364;2024-01-15T01:56:53;94508.75;;;-2.37;91.18
5691;BME280;2870;42.680;23.364;2024-01-15T01:59:20;94514.78;;;-2.28;89.90
5691;BME280;2870;42.680;23.364;2024-01-15T02:01:48;94509.75;;;-2.35;90.50
5691;BME280;2870;42.680;23.364;2024-01-15T02:04:17;94512.94;;;-2.48;91.20
5691;BME280;2870;42.680;23.364;2024-01-15T02:06:45;94497.19;;;-2.47;90.91
5691;BME280;2870;42.680;23.364;2024-01-15T02:09:13;94484.22;;;-2.47;91.21
5691;BME280;2870;42.680;23.364;2024-01-15T02:11:41;94495.31;;;-2.30;90.97
5691;BME280;2870;42.680;23.364;2024-01-15T02:14:09;94493.13;;;-2.57;91.74
5691;BME280;2870;42.680;23.364;2024-01-15T02:16:36;94493.63;;;-2.59;92.05
5691;BME280;2870;42.680;23.364;2024-01-15T02:19:03;94486.78;;;-2.75;92.94
5691;BME280;2870;42.680;23.364;2024-01-15T02:21:30;94470.47;;;-2.84;93.14
5691;BME280;2870;42.680;23.364;2024-01-15T02:23:59;94470.84;;;-2.71;93.11
5691;BME280;2870;42.680;23.364;2024-01-15T02:26:26;94400.03;;;-2.98;93.20
5691;BME280;2870;42.680;23.364;2024-01-15T02:28:53;94436.69;;;-2.64;93.90
5691;BME280;2870;42.680;23.364;2024-01-15T02:31:20;94433.78;;;-2.49;93.11
5691;BME280;2870;42.680;23.364;2024-01-15T02:33:46;94437.50;;;-2.52;92.67
5691;BME280;2870;42.680;23.364;2024-01-15T02:36:14;94428.34;;;-2.38;90.82
5691;BME280;2870;42.680;23.364;2024-01-15T02:38:41;94439.69;;;-2.19;90.32
5691;BME280;2870;42.680;23.364;2024-01-15T02:41:10;94433.97;;;-2.04;89.83
5691;BME280;2870;42.680;23.364;2024-01-15T02:43:39;94433.72;;;-2.06;90.13
5691;BME280;2870;42.680;23.364;2024-01-15T02:46:06;94438.72;;;-2.05;90.19
5691;BME280;2870;42.680;23.364;2024-01-15T02:48:33;94436.91;;;-2.25;90.10
5691;BME280;2870;42.680;23.364;2024-01-15T02:51:00;94420.38;;;-2.36;90.35
5691;BME280;2870;42.680;23.364;2024-01-15T02:53:27;94431.91;;;-2.26;90.80
5691;BME280;2870;42.680;23.364;2024-01-15T02:55:54;94441.25;;;-2.01;90.14
5691;BME280;2870;42.680;23.364;2024-01-15T02:58:22;94434.53;;;-1.95;88.74
5691;BME280;2870;42.680;23.364;2024-01-15T03:04:11;94427.38;;;-2.35;90.28
5691;BME280;2870;42.680;23.364;2024-01-15T03:06:38;94432.09;;;-2.35;90.18
5691;BME280;2870;42.680;23.364;2024-01-15T03:09:05;94441.94;;;-2.18;89.85
5691;BME280;2870;42.680;23.364;2024-01-15T03:11:37;94429.69;;;-2.17;90.49
5691;BME280;2870;42.680;23.364;2024-01-15T03:14:05;94433.47;;;-2.08;90.41
5691;BME280;2870;42.680;23.364;2024-01-15T03:16:31;94432.25;;;-2.02;90.41
5691;BME280;2870;42.680;23.364;2024-01-15T03:18:58;94424.53;;;-1.98;89.77
5691;BME280;2870;42.680;23.364;2024-01-15T03:21:25;94424.81;;;-1.90;89.73
5691;BME280;2870;42.680;23.364;2024-01-15T03:23:52;94429.59;;;-1.74;87.85
5691;BME280;2870;42.680;23.364;2024-01-15T03:26:18;94432.84;;;-1.81;87.24
5691;BME280;2870;42.680;23.364;2024-01-15T03:28:45;94428.28;;;-1.95;86.65
5691;BME280;2870;42.680;23.364;2024-01-15T03:31:13;94415.88;;;-1.68;85.10
5691;BME280;2870;42.680;23.364;2024-01-15T03:33:40;94416.78;;;-1.94;85.41
5691;BME280;2870;42.680;23.364;2024-01-15T03:36:08;94407.72;;;-2.17;86.58
5691;BME280;2870;42.680;23.364;2024-01-15T03:38:40;94396.94;;;-2.26;87.24
5691;BME280;2870;42.680;23.364;2024-01-15T03:41:07;94410.50;;;-2.05;87.41
5691;BME280;2870;42.680;23.364;2024-01-15T03:43:34;94397.00;;;-2.15;86.26
5691;BME280;2870;42.680;23.364;2024-01-15T03:46:00;94406.47;;;-2.10;86.48
5691;BME280;2870;42.680;23.364;2024-01-15T03:48:29;94406.50;;;-2.04;86.66
5691;BME280;2870;42.680;23.364;2024-01-15T03:50:56;94411.03;;;-2.01;86.47
5691;BME280;2870;42.680;23.364;2024-01-15T03:53:23;94407.97;;;-2.15;86.83
5691;BME280;2870;42.680;23.364;2024-01-15T03:55:50;94408.31;;;-1.90;86.69
5691;BME280;2870;42.680;23.364;2024-01-15T03:58:17;94400.63;;;-1.69;87.49
5691;BME280;2870;42.680;23.364;2024-01-15T04:00:44;94410.84;;;-1.75;86.77
5691;BME280;2870;42.680;23.364;2024-01-15T04:03:11;94405.81;;;-1.82;86.98
5691;BME280;2870;42.680;23.364;2024-01-15T04:05:39;94400.59;;;-1.86;86.96
5691;BME280;2870;42.680;23.364;2024-01-15T04:08:06;94393.84;;;-1.79;87.02
5691;BME280;2870;42.680;23.364;2024-01-15T04:10:33;94381.59;;;-1.78;86.80
5691;BME280;2870;42.680;23.364;2024-01-15T04:12:59;94388.13;;;-1.76;87.14
5691;BME280;2870;42.680;23.364;2024-01-15T04:15:27;94386.84;;;-1.86;87.94
5691;BME280;2870;42.680;23.364;2024-01-15T04:17:54;94382.59;;;-1.87;87.79
5691;BME280;2870;42.680;23.364;2024-01-15T04:20:21;94391.09;;;-1.85;87.78
5691;BME280;2870;42.680;23.364;2024-01-15T04:22:49;94388.34;;;-1.79;87.75
5691;BME280;2870;42.680;23.364;2024-01-15T04:25:16;94394.06;;;-1.89;87.70
5691;BME280;2870;42.680;23.364;2024-01-15T04:27:43;94382.06;;;-1.91;87.95
5691;BME280;2870;42.680;23.364;2024-01-15T04:30:10;94392.31;;;-1.97;87.76
5691;BME280;2870;42.680;23.364;2024-01-15T04:32:37;94390.00;;;-2.04;88.37
5691;BME280;2870;42.680;23.364;2024-01-15T04:35:04;94386.78;;;-2.08;87.93
5691;BME280;2870;42.680;23.364;2024-01-15T04:37:31;94394.28;;;-2.03;86.95
5691;BME280;2870;42.680;23.364;2024-01-15T04:39:59;94391.19;;;-2.22;87.79
5691;BME280;2870;42.680;23.364;2024-01-15T04:42:26;94384.97;;;-2.23;87.87
5691;BME280;2870;42.680;23.364;2024-01-15T04:44:53;94388.72;;;-2.20;88.57
5691;BME280;2870;42.680;23.364;2024-01-15T04:47:19;94389.16;;;-2.33;88.10
5691;BME280;2870;42.680;23.364;2024-01-15T04:49:46;94374.41;;;-2.41;88.61
5691;BME280;2870;42.680;23.364;2024-01-15T04:52:14;94374.63;;;-2.45;88.24
5691;BME280;2870;42.680;23.364;2024-01-15T04:54:41;94374.25;;;-2.69;88.99
5691;BME280;2870;42.680;23.364;2024-01-15T04:57:09;94371.06;;;-2.62;88.90
5691;BME280;2870;42.680;23.364;2024-01-15T04:59:36;94368.59;;;-2.54;88.69
5691;BME280;2870;42.680;23.364;2024-01-15T05:02:03;94351.38;;;-2.55;88.82
5691;BME280;2870;42.680;23.364;2024-01-15T05:04:29;94354.59;;;-2.56;89.08
5691;BME280;2870;42.680;23.364;2024-01-15T05:06:56;94372.56;;;-2.61;89.64
5691;BME280;2870;42.680;23.364;2024-01-15T05:09:23;94369.63;;;-2.46;89.42
5691;BME280;2870;42.680;23.364;2024-01-15T05:11:50;94369.88;;;-2.44;89.60
5691;BME280;2870;42.680;23.364;2024-01-15T05:14:18;94366.66;;;-2.43;90.22
5691;BME280;2870;42.680;23.364;2024-01-15T05:16:46;94354.25;;;-2.27;90.17
5691;BME280;2870;42.680;23.364;2024-01-15T05:19:14;94352.66;;;-2.45;89.14
5691;BME280;2870;42.680;23.364;2024-01-15T05:21:40;94354.72;;;-2.28;89.94
5691;BME280;2870;42.680;23.364;2024-01-15T05:24:08;94366.53;;;-2.05;88.45
5691;BME280;2870;42.680;23.364;2024-01-15T05:26:34;94349.84;;;-1.91;87.56
5691;BME280;2870;42.680;23.364;2024-01-15T05:29:01;94366.03;;;-2.09;88.07
5691;BME280;2870;42.680;23.364;2024-01-15T05:31:30;94359.69;;;-2.38;88.99
5691;BME280;2870;42.680;23.364;2024-01-15T05:33:57;94351.50;;;-2.27;88.79
5691;BME280;2870;42.680;23.364;2024-01-15T05:36:24;94352.50;;;-2.19;88.92
5691;BME280;2870;42.680;23.364;2024-01-15T05:38:50;94349.00;;;-2.19;89.25
5691;BME280;2870;42.680;23.364;2024-01-15T05:41:17;94339.69;;;-2.38;90.04
5691;BME280;2870;42.680;23.364;2024-01-15T05:43:44;94341.44;;;-2.41;90.61
5691;BME280;2870;42.680;23.364;2024-01-15T05:46:11;94348.44;;;-2.40;91.17
5691;BME280;2870;42.680;23.364;2024-01-15T05:48:39;94341.75;;;-2.22;91.02
5691;BME280;2870;42.680;23.364;2024-01-15T05:51:06;94337.53;;;-2.18;90.92
5691;BME280;2870;42.680;23.364;2024-01-15T05:53:33;94327.53;;;-2.21;90.97
5691;BME280;2870;42.680;23.364;2024-01-15T05:55:59;94324.03;;;-2.16;91.16
5691;BME280;2870;42.680;23.364;2024-01-15T05:58:26;94328.78;;;-2.16;91.60
5691;BME280;2870;42.680;23.364;2024-01-15T06:00:53;94327.59;;;-2.04;91.04
5691;BME280;2870;42.680;23.364;2024-01-15T06:03:20;94322.59;;;-1.94;90.64
5691;BME280;2870;42.680;23.364;2024-01-15T06:05:48;94343.81;;;-1.95;90.11
5691;BME280;2870;42.680;23.364;2024-01-15T06:08:15;94346.06;;;-1.93;90.47
5691;BME280;2870;42.680;23.364;2024-01-15T06:10:41;94356.88;;;-1.73;89.13
5691;BME280;2870;42.680;23.364;2024-01-15T06:13:08;94353.88;;;-1.80;89.62
5691;BME280;2870;42.680;23.364;2024-01-15T06:15:35;94337.63;;;-1.73;89.44
5691;BME280;2870;42.680;23.364;2024-01-15T06:18:02;94342.31;;;-1.96;89.31
5691;BME280;2870;42.680;23.364;2024-01-15T06:20:28;94327.13;;;-1.69;88.65
5691;BME280;2870;42.680;23.364;2024-01-15T06:22:57;94330.13;;;-1.44;87.39
5691;BME280;2870;42.680;23.364;2024-01-15T06:25:23;94324.13;;;-1.26;87.28
5691;BME280;2870;42.680;23.364;2024-01-15T06:27:50;94331.09;;;-1.02;86.38
5691;BME280;2870;42.680;23.364;2024-01-15T06:30:17;94327.38;;;-1.33;87.11
5691;BME280;2870;42.680;23.364;2024-01-15T06:32:44;94320.38;;;-1.28;86.96
5691;BME280;2870;42.680;23.364;2024-01-15T06:35:11;94319.63;;;-1.29;86.61
5691;BME280;2870;42.680;23.364;2024-01-15T06:37:37;94335.38;;;-1.18;86.60
5691;BME280;2870;42.680;23.364;2024-01-15T06:40:07;94336.34;;;-1.04;86.83
5691;BME280;2870;42.680;23.364;2024-01-15T06:42:34;94337.63;;;-1.05;86.21
5691;BME280;2870;42.680;23.364;2024-01-15T06:45:01;94328.53;;;-0.67;85.63
5691;BME280;2870;42.680;23.364;2024-01-15T06:47:28;94337.28;;;-0.74;85.47
5691;BME280;2870;42.680;23.364;2024-01-15T06:49:54;94328.50;;;-0.61;85.37
5691;BME280;2870;42.680;23.364;2024-01-15T06:52:21;94330.75;;;-0.54;84.55
5691;BME280;2870;42.680;23.364;2024-01-15T06:54:48;94342.81;;;-0.80;86.00
5691;BME280;2870;42.680;23.364;2024-01-15T06:57:16;94338.47;;;-0.47;85.15
5691;BME280;2870;42.680;23.364;2024-01-15T06:59:45;94353.97;;;-0.38;84.12
5691;BME280;2870;42.680;23.364;2024-01-15T07:02:12;94361.31;;;-0.74;84.39
5691;BME280;2870;42.680;23.364;2024-01-15T07:04:38;94336.34;;;-0.18;83.90
5691;BME280;2870;42.680;23.364;2024-01-15T07:07:05;94358.75;;;-0.39;84.10
5691;BME280;2870;42.680;23.364;2024-01-15T07:09:32;94347.22;;;-0.37;84.44
5691;BME280;2870;42.680;23.364;2024-01-15T07:11:59;94342.06;;;-0.05;84.04
5691;BME280;2870;42.680;23.364;2024-01-15T07:14:27;94348.06;;;-0.07;83.41
5691;BME280;2870;42.680;23.364;2024-01-15T07:16:54;94340.72;;;0.13;83.36
5691;BME280;2870;42.680;23.364;2024-01-15T07:19:20;94347.13;;;-0.15;83.64
5691;BME280;2870;42.680;23.364;2024-01-15T07:21:47;94349.56;;;0.00;83.54
5691;BME280;2870;42.680;23.364;2024-01-15T07:24:14;94359.56;;;0.03;83.42
5691;BME280;2870;42.680;23.364;2024-01-15T07:26:40;94356.59;;;-0.05;83.73
5691;BME280;2870;42.680;23.364;2024-01-15T07:29:07;94343.72;;;0.09;83.23
5691;BME280;2870;42.680;23.364;2024-01-15T07:31:35;94340.88;;;0.26;83.12
5691;BME280;2870;42.680;23.364;2024-01-15T07:34:02;94338.38;;;0.22;83.43
5691;BME280;2870;42.680;23.364;2024-01-15T07:36:29;94334.13;;;0.21;82.60
5691;BME280;2870;42.680;23.364;2024-01-15T07:38:56;94315.03;;;0.29;82.13
5691;BME280;2870;42.680;23.364;2024-01-15T07:41:23;94329.44;;;0.52;82.70
5691;BME280;2870;42.680;23.364;2024-01-15T07:43:49;94352.69;;;0.21;82.79
5691;BME280;2870;42.680;23.364;2024-01-15T07:46:16;94350.19;;;0.23;84.06
5691;BME280;2870;42.680;23.364;2024-01-15T07:48:44;94338.91;;;0.57;82.26
5691;BME280;2870;42.680;23.364;2024-01-15T07:51:11;94354.13;;;0.33;82.27
5691;BME280;2870;42.680;23.364;2024-01-15T07:53:38;94349.78;;;0.43;82.10
5691;BME280;2870;42.680;23.364;2024-01-15T07:56:05;94355.38;;;0.68;81.33
5691;BME280;2870;42.680;23.364;2024-01-15T07:58:32;94362.78;;;0.54;80.65
5691;BME280;2870;42.680;23.364;2024-01-15T08:00:58;94356.00;;;0.14;81.65
5691;BME280;2870;42.680;23.364;2024-01-15T08:03:25;94337.25;;;0.42;80.85
5691;BME280;2870;42.680;23.364;2024-01-15T08:05:54;94313.97;;;0.38;81.58
5691;BME280;2870;42.680;23.364;2024-01-15T08:08:23;94318.84;;;0.56;81.33
5691;BME280;2870;42.680;23.364;2024-01-15T08:10:50;94326.22;;;0.07;81.89
5691;BME280;2870;42.680;23.364;2024-01-15T08:13:17;94336.22;;;0.10;81.46
5691;BME280;2870;42.680;23.364;2024-01-15T08:15:43;94337.75;;;0.46;80.60
5691;BME280;2870;42.680;23.364;2024-01-15T08:18:10;94350.41;;;0.25;81.71
5691;BME280;2870;42.680;23.364;2024-01-15T08:20:37;94324.19;;;0.48;81.15
5691;BME280;2870;42.680;23.364;2024-01-15T08:23:05;94323.75;;;0.99;80.17
5691;BME280;2870;42.680;23.364;2024-01-15T08:25:32;94343.41;;;0.60;80.82
5691;BME280;2870;42.680;23.364;2024-01-15T08:27:59;94349.56;;;0.41;80.76
5691;BME280;2870;42.680;23.364;2024-01-15T08:30:25;94356.94;;;0.63;81.11
5691;BME280;2870;42.680;23.364;2024-01-15T08:32:53;94349.38;;;0.99;80.13
5691;BME280;2870;42.680;23.364;2024-01-15T08:35:20;94335.63;;;1.18;79.34
5691;BME280;2870;42.680;23.364;2024-01-15T08:37:48;94315.53;;;1.18;78.05
5691;BME280;2870;42.680;23.364;2024-01-15T08:40:16;94314.78;;;1.42;78.00
5691;BME280;2870;42.680;23.364;2024-01-15T08:42:43;94319.50;;;1.47;77.47
5691;BME280;2870;42.680;23.364;2024-01-15T08:45:11;94309.94;;;1.91;74.81
5691;BME280;2870;42.680;23.364;2024-01-15T08:47:38;94309.94;;;2.10;75.19
5691;BME280;2870;42.680;23.364;2024-01-15T08:50:06;94314.97;;;2.44;74.62
5691;BME280;2870;42.680;23.364;2024-01-15T08:52:35;94303.03;;;3.00;72.44
5691;BME280;2870;42.680;23.364;2024-01-15T08:55:03;94314.63;;;2.85;70.80
5691;BME280;2870;42.680;23.364;2024-01-15T08:57:33;94303.81;;;3.13;70.37
5691;BME280;2870;42.680;23.364;2024-01-15T09:00:02;94307.03;;;3.31;69.70
5691;BME280;2870;42.680;23.364;2024-01-15T09:02:29;94299.41;;;3.05;70.07
5691;BME280;2870;42.680;23.364;2024-01-15T09:04:56;94296.16;;;3.59;66.52
5691;BME280;2870;42.680;23.364;2024-01-15T09:07:23;94268.75;;;4.16;63.91
5691;BME280;2870;42.680;23.364;2024-01-15T09:09:50;94282.31;;;4.41;62.37
5691;BME280;2870;42.680;23.364;2024-01-15T09:12:17;94276.97;;;5.55;59.45
5691;BME280;2870;42.680;23.364;2024-01-15T09:14:47;94279.22;;;5.93;57.59
5691;BME280;2870;42.680;23.364;2024-01-15T09:17:15;94251.81;;;6.71;57.16
5691;BME280;2870;42.680;23.364;2024-01-15T09:19:42;94240.44;;;6.54;57.31
5691;BME280;2870;42.680;23.364;2024-01-15T09:22:09;94232.06;;;6.38;56.35
5691;BME280;2870;42.680;23.364;2024-01-15T09:24:36;94228.78;;;5.60;58.09
5691;BME280;2870;42.680;23.364;2024-01-15T09:27:03;94232.47;;;5.26;58.52
5691;BME280;2870;42.680;23.364;2024-01-15T09:29:30;94237.34;;;5.05;60.28
5691;BME280;2870;42.680;23.364;2024-01-15T09:31:58;94228.91;;;4.27;61.71
5691;BME280;2870;42.680;23.364;2024-01-15T09:34:28;94213.53;;;4.47;61.68
5691;BME280;2870;42.680;23.364;2024-01-15T09:36:55;94231.06;;;3.87;62.22
5691;BME280;2870;42.680;23.364;2024-01-15T09:39:22;94217.13;;;3.66;63.90
5691;BME280;2870;42.680;23.364;2024-01-15T09:41:49;94210.22;;;3.06;65.47
5691;BME280;2870;42.680;23.364;2024-01-15T09:44:17;94197.00;;;3.26;65.45
5691;BME280;2870;42.680;23.364;2024-01-15T09:46:44;94201.69;;;3.17;66.13
5691;BME280;2870;42.680;23.364;2024-01-15T09:49:12;94191.28;;;3.24;66.29
5691;BME280;2870;42.680;23.364;2024-01-15T09:51:40;94190.59;;;2.78;66.35
5691;BME280;2870;42.680;23.364;2024-01-15T09:54:07;94192.66;;;2.90;66.36
5691;BME280;2870;42.680;23.364;2024-01-15T09:56:35;94175.69;;;2.81;67.62
5691;BME280;2870;42.680;23.364;2024-01-15T09:59:02;94181.84;;;2.47;69.24
5691;BME280;2870;42.680;23.364;2024-01-15T10:01:31;94146.72;;;2.82;67.57
5691;BME280;2870;42.680;23.364;2024-01-15T10:03:58;94161.59;;;2.39;69.33
5691;BME280;2870;42.680;23.364;2024-01-15T10:06:27;94156.81;;;2.66;69.25
5691;BME280;2870;42.680;23.364;2024-01-15T10:08:54;94178.22;;;2.52;69.76
5691;BME280;2870;42.680;23.364;2024-01-15T10:11:23;94176.41;;;2.55;71.73
5691;BME280;2870;42.680;23.364;2024-01-15T10:13:50;94155.56;;;2.67;70.96
5691;BME280;2870;42.680;23.364;2024-01-15T10:16:18;94156.25;;;2.28;72.14
5691;BME280;2870;42.680;23.364;2024-01-15T10:18:45;94145.69;;;2.26;72.50
5691;BME280;2870;42.680;23.364;2024-01-15T10:21:12;94129.38;;;2.68;71.26
5691;BME280;2870;42.680;23.364;2024-01-15T10:23:42;94140.91;;;2.27;73.56
5691;BME280;2870;42.680;23.364;2024-01-15T10:26:09;94134.13;;;2.41;71.84
5691;BME280;2870;42.680;23.364;2024-01-15T10:28:37;94124.88;;;2.38;71.70
5691;BME280;2870;42.680;23.364;2024-01-15T10:31:04;94112.19;;;2.43;71.83
5691;BME280;2870;42.680;23.364;2024-01-15T10:33:31;94114.75;;;2.41;72.20
5691;BME280;2870;42.680;23.364;2024-01-15T10:36:00;94115.25;;;2.13;72.79
5691;BME280;2870;42.680;23.364;2024-01-15T10:38:27;94115.31;;;2.53;72.96
5691;BME280;2870;42.680;23.364;2024-01-15T10:40:55;94090.16;;;2.37;72.06
5691;BME280;2870;42.680;23.364;2024-01-15T10:43:23;94091.75;;;2.59;70.59
5691;BME280;2870;42.680;23.364;2024-01-15T10:45:51;94115.13;;;2.05;73.97
5691;BME280;2870;42.680;23.364;2024-01-15T10:48:18;94106.00;;;2.37;72.67
5691;BME280;2870;42.680;23.364;2024-01-15T10:50:47;94104.53;;;2.76;72.54
5691;BME280;2870;42.680;23.364;2024-01-15T10:53:16;94104.97;;;2.93;73.00
5691;BME280;2870;42.680;23.364;2024-01-15T10:55:43;94094.72;;;3.14;72.20
5691;BME280;2870;42.680;23.364;2024-01-15T10:58:15;94087.06;;;3.07;70.18
5691;BME280;2870;42.680;23.364;2024-01-15T11:00:43;94080.50;;;2.84;71.78
5691;BME280;2870;42.680;23.364;2024-01-15T11:03:10;94082.34;;;3.15;72.05
5691;BME280;2870;42.680;23.364;2024-01-15T11:05:37;94084.28;;;2.94;71.16
5691;BME280;2870;42.680;23.364;2024-01-15T11:08:06;94070.53;;;3.02;69.06
5691;BME280;2870;42.680;23.364;2024-01-15T11:10:40;94084.19;;;3.34;69.56
5691;BME280;2870;42.680;23.364;2024-01-15T11:13:10;94085.41;;;3.59;69.41
5691;BME280;2870;42.680;23.364;2024-01-15T11:15:58;94070.25;;;4.02;68.25
5691;BME280;2870;42.680;23.364;2024-01-15T11:18:27;94057.41;;;4.12;67.35
5691;BME280;2870;42.680;23.364;2024-01-15T11:21:21;94048.88;;;4.10;67.14
5691;BME280;2870;42.680;23.364;2024-01-15T11:23:50;94047.47;;;3.96;66.55
5691;BME280;2870;42.680;23.364;2024-01-15T11:26:30;94045.41;;;4.17;66.19
5691;BME280;2870;42.680;23.364;2024-01-15T11:28:58;94041.06;;;4.30;65.65
5691;BME280;2870;42.680;23.364;2024-01-15T11:31:28;94040.59;;;4.39;65.87
5691;BME280;2870;42.680;23.364;2024-01-15T11:33:54;94041.50;;;4.13;65.16
5691;BME280;2870;42.680;23.364;2024-01-15T11:36:21;94048.09;;;4.31;64.71
5691;BME280;2870;42.680;23.364;2024-01-15T11:38:48;94037.63;;;4.73;63.78
5691;BME280;2870;42.680;23.364;2024-01-15T11:41:15;94040.81;;;4.77;64.85
5691;BME280;2870;42.680;23.364;2024-01-15T11:43:41;94036.31;;;4.66;63.57
5691;BME280;2870;42.680;23.364;2024-01-15T11:46:11;94025.72;;;4.65;64.05
5691;BME280;2870;42.680;23.364;2024-01-15T11:48:43;93983.56;;;4.82;62.99
5691;BME280;2870;42.680;23.364;2024-01-15T11:51:12;94034.97;;;4.96;62.66
5691;BME280;2870;42.680;23.364;2024-01-15T11:53:43;94043.34;;;4.67;62.83
5691;BME280;2870;42.680;23.364;2024-01-15T11:56:14;94031.59;;;4.90;63.90
5691;BME280;2870;42.680;23.364;2024-01-15T11:58:42;94017.56;;;5.03;62.83
5691;BME280;2870;42.680;23.364;2024-01-15T12:01:11;94002.50;;;4.83;62.16
5691;BME280;2870;42.680;23.364;2024-01-15T12:03:37;94007.00;;;5.01;61.96
5691;BME280;2870;42.680;23.364;2024-01-15T12:06:07;94003.50;;;5.01;62.86
5691;BME280;2870;42.680;23.364;2024-01-15T12:08:35;94020.63;;;4.76;64.32
5691;BME280;2870;42.680;23.364;2024-01-15T12:11:06;94016.88;;;4.74;64.55
5691;BME280;2870;42.680;23.364;2024-01-15T12:13:33;94003.84;;;4.97;66.09
5691;BME280;2870;42.680;23.364;2024-01-15T12:16:01;94004.78;;;5.00;64.95
5691;BME280;2870;42.680;23.364;2024-01-15T12:18:28;94002.59;;;5.06;63.72
5691;BME280;2870;42.680;23.364;2024-01-15T12:20:55;93990.56;;;5.19;63.49
5691;BME280;2870;42.680;23.364;2024-01-15T12:23:23;93976.78;;;4.98;63.73
5691;BME280;2870;42.680;23.364;2024-01-15T12:25:50;93983.78;;;4.84;64.61
5691;BME280;2870;42.680;23.364;2024-01-15T12:28:17;93990.91;;;5.00;63.46
5691;BME280;2870;42.680;23.364;2024-01-15T12:30:46;93987.78;;;5.19;62.99
5691;BME280;2870;42.680;23.364;2024-01-15T12:33:17;93985.59;;;5.25;62.17
5691;BME280;2870;42.680;23.364;2024-01-15T12:35:45;93979.81;;;5.15;63.11
5691;BME280;2870;42.680;23.364;2024-01-15T12:38:12;93971.09;;;5.11;63.80
5691;BME280;2870;42.680;23.364;2024-01-15T12:40:40;93976.44;;;5.01;64.99
5691;BME280;2870;42.680;23.364;2024-01-15T12:43:06;93978.28;;;4.99;64.42
5691;BME280;2870;42.680;23.364;2024-01-15T12:45:33;93977.22;;;5.17;64.25
5691;BME280;2870;42.680;23.364;2024-01-15T12:48:03;93972.81;;;5.37;62.95
5691;BME280;2870;42.680;23.364;2024-01-15T12:50:31;93944.97;;;5.14;63.15
5691;BME280;2870;42.680;23.364;2024-01-15T12:52:59;93965.66;;;4.98;63.91
5691;BME280;2870;42.680;23.364;2024-01-15T12:55:26;93965.66;;;4.98;64.13
5691;BME280;2870;42.680;23.364;2024-01-15T12:57:54;93954.59;;;5.05;63.45
5691;BME280;2870;42.680;23.364;2024-01-15T13:00:21;93948.91;;;5.34;65.17
5691;BME280;2870;42.680;23.364;2024-01-15T13:02:48;93900.81;;;4.88;63.81
5691;BME280;2870;42.680;23.364;2024-01-15T13:05:16;93943.72;;;5.38;64.47
5691;BME280;2870;42.680;23.364;2024-01-15T13:07:43;93945.56;;;5.36;63.59
5691;BME280;2870;42.680;23.364;2024-01-15T13:10:10;93952.97;;;5.18;64.41
5691;BME280;2870;42.680;23.364;2024-01-15T13:12:37;93898.97;;;4.83;63.94
5691;BME280;2870;42.680;23.364;2024-01-15T13:15:06;93939.81;;;5.26;63.45
5691;BME280;2870;42.680;23.364;2024-01-15T13:17:37;93935.38;;;5.38;63.71
5691;BME280;2870;42.680;23.364;2024-01-15T13:20:05;93934.25;;;5.49;63.51